sensor_id;sensor_type;location;lat;lon;timestamp;P1;durP1;ratioP1;P2;durP2;ratioP2
79710;SDS011;69465;51.630;6.570;2023-04-24T00:01:02;3.50;;;3.20;;
79710;SDS011;69465;51.630;6.570;2023-04-24T00:03:29;5.73;;;3.20;;
79710;SDS011;69465;51.630;6.570;2023-04-24T00:05:55;5.47;;;3.00;;
79710;SDS011;69465;51.630;6.570;2023-04-24T00:08:22;4.07;;;3.20;;
79710;SDS011;69465;51.630;6.570;2023-04-24T00:10:49;4.23;;;3.00;;
79710;SDS011;69465;51.630;6.570;2023-04-24T00:13:16;3.37;;;2.77;;
79710;SDS011;69465;51.630;6.570;2023-04-24T00:15:42;3.53;;;3.20;;
79710;SDS011;69465;51.630;6.570;2023-04-24T00:18:09;4.20;;;3.47;;
79710;SDS011;69465;51.630;6.570;2023-04-24T00:20:35;4.77;;;3.60;;
79710;SDS011;69465;51.630;6.570;2023-04-24T00:23:02;4.67;;;3.83;;
79710;SDS011;69465;51.630;6.570;2023-04-24T00:25:29;4.33;;;3.83;;
79710;SDS011;69465;51.630;6.570;2023-04-24T00:27:56;4.13;;;3.70;;
79710;SDS011;69465;51.630;6.570;2023-04-24T00:30:23;4.27;;;3.87;;
79710;SDS011;69465;51.630;6.570;2023-04-24T00:32:49;4.83;;;4.10;;
79710;SDS011;69465;51.630;6.570;2023-04-24T00:35:16;5.43;;;4.13;;
79710;SDS011;69465;51.630;6.570;2023-04-24T00:37:43;6.37;;;4.90;;
79710;SDS011;69465;51.630;6.570;2023-04-24T00:40:10;5.73;;;4.57;;
79710;SDS011;69465;51.630;6.570;2023-04-24T00:42:37;5.77;;;4.97;;
79710;SDS011;69465;51.630;6.570;2023-04-24T00:45:04;7.90;;;5.70;;
79710;SDS011;69465;51.630;6.570;2023-04-24T00:47:35;8.20;;;5.50;;
79710;SDS011;69465;51.630;6.570;2023-04-24T00:50:02;7.00;;;6.30;;
79710;SDS011;69465;51.630;6.570;2023-04-24T00:52:30;7.43;;;6.37;;
79710;SDS011;69465;51.630;6.570;2023-04-24T00:54:57;8.87;;;6.10;;
79710;SDS011;69465;51.630;6.570;2023-04-24T00:57:24;8.57;;;6.37;;
79710;SDS011;69465;51.630;6.570;2023-04-24T00:59:51;8.17;;;5.90;;
79710;SDS011;69465;51.630;6.570;2023-04-24T01:02:18;8.10;;;5.40;;
79710;SDS011;69465;51.630;6.570;2023-04-24T01:04:48;8.23;;;5.70;;
79710;SDS011;69465;51.630;6.570;2023-04-24T01:07:17;6.73;;;5.27;;
79710;SDS011;69465;51.630;6.570;2023-04-24T01:09:48;10.13;;;5.50;;
79710;SDS011;69465;51.630;6.570;2023-04-24T01:12:15;7.77;;;5.73;;
79710;SDS011;69465;51.630;6.570;2023-04-24T01:14:42;7.97;;;5.70;;
79710;SDS011;69465;51.630;6.570;2023-04-24T01:17:08;7.60;;;5.47;;
79710;SDS011;69465;51.630;6.570;2023-04-24T01:19:35;12.73;;;6.80;;
79710;SDS011;69465;51.630;6.570;2023-04-24T01:22:02;9.73;;;6.70;;
79710;SDS011;69465;51.630;6.570;2023-04-24T01:24:29;12.13;;;6.67;;
79710;SDS011;69465;51.630;6.570;2023-04-24T01:26:56;9.53;;;7.07;;
79710;SDS011;69465;51.630;6.570;2023-04-24T01:29:23;9.47;;;7.50;;
79710;SDS011;69465;51.630;6.570;2023-04-24T01:31:50;12.97;;;7.37;;
79710;SDS011;69465;51.630;6.570;2023-04-24T01:34:17;10.33;;;7.13;;
79710;SDS011;69465;51.630;6.570;2023-04-24T01:36:45;10.00;;;7.77;;
79710;SDS011;69465;51.630;6.570;2023-04-24T01:39:12;14.63;;;7.73;;
79710;SDS011;69465;51.630;6.570;2023-04-24T01:41:39;11.10;;;8.50;;
79710;SDS011;69465;51.630;6.570;2023-04-24T01:44:06;11.13;;;8.10;;
79710;SDS011;69465;51.630;6.570;2023-04-24T01:46:33;10.73;;;8.10;;
79710;SDS011;69465;51.630;6.570;2023-04-24T01:49:00;11.77;;;8.20;;
79710;SDS011;69465;51.630;6.570;2023-04-24T01:51:27;14.37;;;9.53;;
79710;SDS011;69465;51.630;6.570;2023-04-24T01:53:54;11.90;;;8.83;;
79710;SDS011;69465;51.630;6.570;2023-04-24T01:56:21;14.10;;;8.67;;
79710;SDS011;69465;51.630;6.570;2023-04-24T01:58:49;12.57;;;9.20;;
79710;SDS011;69465;51.630;6.570;2023-04-24T02:01:18;12.93;;;9.43;;
79710;SDS011;69465;51.630;6.570;2023-04-24T02:03:46;15.27;;;9.00;;
79710;SDS011;69465;51.630;6.570;2023-04-24T02:06:13;10.87;;;9.30;;
79710;SDS011;69465;51.630;6.570;2023-04-24T02:08:39;12.17;;;8.87;;
79710;SDS011;69465;51.630;6.570;2023-04-24T02:11:08;14.97;;;10.70;;
79710;SDS011;69465;51.630;6.570;2023-04-24T02:13:35;15.57;;;11.43;;
79710;SDS011;69465;51.630;6.570;2023-04-24T02:16:02;16.63;;;12.50;;
79710;SDS011;69465;51.630;6.570;2023-04-24T02:18:29;16.40;;;12.90;;
79710;SDS011;69465;51.630;6.570;2023-04-24T02:20:55;18.70;;;12.67;;
79710;SDS011;69465;51.630;6.570;2023-04-24T02:23:22;17.43;;;12.70;;
79710;SDS011;69465;51.630;6.570;2023-04-24T02:25:48;19.23;;;13.93;;
79710;SDS011;69465;51.630;6.570;2023-04-24T02:28:15;19.40;;;13.00;;
79710;SDS011;69465;51.630;6.570;2023-04-24T02:30:42;19.03;;;12.77;;
79710;SDS011;69465;51.630;6.570;2023-04-24T02:33:08;18.50;;;12.73;;
79710;SDS011;69465;51.630;6.570;2023-04-24T02:35:35;17.63;;;13.43;;
79710;SDS011;69465;51.630;6.570;2023-04-24T02:38:03;20.10;;;13.00;;
79710;SDS011;69465;51.630;6.570;2023-04-24T02:40:29;21.00;;;13.63;;
79710;SDS011;69465;51.630;6.570;2023-04-24T02:42:56;18.37;;;12.57;;
79710;SDS011;69465;51.630;6.570;2023-04-24T02:45:23;23.97;;;13.17;;
79710;SDS011;69465;51.630;6.570;2023-04-24T02:47:49;18.30;;;13.47;;
79710;SDS011;69465;51.630;6.570;2023-04-24T02:50:16;20.37;;;13.17;;
79710;SDS011;69465;51.630;6.570;2023-04-24T02:52:43;18.80;;;13.53;;
79710;SDS011;69465;51.630;6.570;2023-04-24T02:55:09;19.80;;;13.83;;
79710;SDS011;69465;51.630;6.570;2023-04-24T02:57:36;23.10;;;14.77;;
79710;SDS011;69465;51.630;6.570;2023-04-24T03:00:03;22.07;;;15.07;;
79710;SDS011;69465;51.630;6.570;2023-04-24T03:02:30;20.93;;;14.70;;
79710;SDS011;69465;51.630;6.570;2023-04-24T03:04:57;22.67;;;16.40;;
79710;SDS011;69465;51.630;6.570;2023-04-24T03:07:24;21.90;;;15.00;;
79710;SDS011;69465;51.630;6.570;2023-04-24T03:09:50;21.80;;;15.27;;
79710;SDS011;69465;51.630;6.570;2023-04-24T03:12:17;25.43;;;16.00;;
79710;SDS011;69465;51.630;6.570;2023-04-24T03:14:44;22.53;;;15.50;;
79710;SDS011;69465;51.630;6.570;2023-04-24T03:17:10;24.10;;;15.73;;
79710;SDS011;69465;51.630;6.570;2023-04-24T03:19:37;23.53;;;14.90;;
79710;SDS011;69465;51.630;6.570;2023-04-24T03:22:04;24.93;;;16.00;;
79710;SDS011;69465;51.630;6.570;2023-04-24T03:24:31;26.13;;;16.83;;
79710;SDS011;69465;51.630;6.570;2023-04-24T03:26:57;27.20;;;18.27;;
79710;SDS011;69465;51.630;6.570;2023-04-24T03:29:24;25.07;;;16.23;;
79710;SDS011;69465;51.630;6.570;2023-04-24T03:31:50;21.67;;;16.00;;
79710;SDS011;69465;51.630;6.570;2023-04-24T03:34:17;25.13;;;17.47;;
79710;SDS011;69465;51.630;6.570;2023-04-24T03:36:44;21.77;;;16.43;;
79710;SDS011;69465;51.630;6.570;2023-04-24T03:39:10;24.47;;;16.30;;
79710;SDS011;69465;51.630;6.570;2023-04-24T03:41:37;23.83;;;15.23;;
79710;SDS011;69465;51.630;6.570;2023-04-24T03:44:04;23.50;;;16.33;;
79710;SDS011;69465;51.630;6.570;2023-04-24T03:46:30;25.57;;;15.97;;
79710;SDS011;69465;51.630;6.570;2023-04-24T03:48:57;24.67;;;16.47;;
79710;SDS011;69465;51.630;6.570;2023-04-24T03:51:24;21.97;;;15.90;;
79710;SDS011;69465;51.630;6.570;2023-04-24T03:53:50;23.93;;;15.80;;
79710;SDS011;69465;51.630;6.570;2023-04-24T03:56:17;21.70;;;15.27;;
79710;SDS011;69465;51.630;6.570;2023-04-24T03:58:43;22.40;;;15.07;;
79710;SDS011;69465;51.630;6.570;2023-04-24T04:01:10;22.03;;;14.87;;
79710;SDS011;69465;51.630;6.570;2023-04-24T04:03:37;22.70;;;15.30;;
79710;SDS011;69465;51.630;6.570;2023-04-24T04:06:04;21.83;;;14.97;;
79710;SDS011;69465;51.630;6.570;2023-04-24T04:08:31;24.37;;;16.40;;
79710;SDS011;69465;51.630;6.570;2023-04-24T04:10:58;20.10;;;13.77;;
79710;SDS011;69465;51.630;6.570;2023-04-24T04:13:24;19.73;;;14.70;;
79710;SDS011;69465;51.630;6.570;2023-04-24T04:15:51;24.30;;;15.03;;
79710;SDS011;69465;51.630;6.570;2023-04-24T04:18:17;21.53;;;16.00;;
79710;SDS011;69465;51.630;6.570;2023-04-24T04:20:44;25.43;;;15.63;;
79710;SDS011;69465;51.630;6.570;2023-04-24T04:23:11;20.03;;;15.03;;
79710;SDS011;69465;51.630;6.570;2023-04-24T04:25:37;21.07;;;15.67;;
79710;SDS011;69465;51.630;6.570;2023-04-24T04:28:04;18.60;;;14.17;;
79710;SDS011;69465;51.630;6.570;2023-04-24T04:30:31;18.17;;;13.73;;
79710;SDS011;69465;51.630;6.570;2023-04-24T04:32:58;20.40;;;14.70;;
79710;SDS011;69465;51.630;6.570;2023-04-24T04:35:25;19.93;;;15.00;;
79710;SDS011;69465;51.630;6.570;2023-04-24T04:37:52;23.03;;;14.43;;
79710;SDS011;69465;51.630;6.570;2023-04-24T04:40:19;16.93;;;13.93;;
79710;SDS011;69465;51.630;6.570;2023-04-24T04:42:45;21.07;;;13.50;;
79710;SDS011;69465;51.630;6.570;2023-04-24T04:45:12;19.87;;;14.00;;
79710;SDS011;69465;51.630;6.570;2023-04-24T04:47:39;19.33;;;14.30;;
79710;SDS011;69465;51.630;6.570;2023-04-24T04:50:06;22.40;;;14.77;;
79710;SDS011;69465;51.630;6.570;2023-04-24T04:52:33;22.43;;;14.03;;
79710;SDS011;69465;51.630;6.570;2023-04-24T04:54:59;22.17;;;14.60;;
79710;SDS011;69465;51.630;6.570;2023-04-24T04:57:26;19.53;;;15.30;;
79710;SDS011;69465;51.630;6.570;2023-04-24T04:59:53;22.27;;;15.50;;
79710;SDS011;69465;51.630;6.570;2023-04-24T05:02:19;21.20;;;15.80;;
79710;SDS011;69465;51.630;6.570;2023-04-24T05:04:46;20.83;;;14.50;;
79710;SDS011;69465;51.630;6.570;2023-04-24T05:07:13;22.07;;;15.67;;
79710;SDS011;69465;51.630;6.570;2023-04-24T05:09:40;21.33;;;14.33;;
79710;SDS011;69465;51.630;6.570;2023-04-24T05:12:07;23.87;;;14.60;;
79710;SDS011;69465;51.630;6.570;2023-04-24T05:14:34;16.20;;;12.53;;
79710;SDS011;69465;51.630;6.570;2023-04-24T05:17:00;19.77;;;12.33;;
79710;SDS011;69465;51.630;6.570;2023-04-24T05:19:27;19.43;;;12.57;;
79710;SDS011;69465;51.630;6.570;2023-04-24T05:21:54;17.87;;;12.77;;
79710;SDS011;69465;51.630;6.570;2023-04-24T05:24:20;16.73;;;11.53;;
79710;SDS011;69465;51.630;6.570;2023-04-24T05:26:47;15.50;;;11.10;;
79710;SDS011;69465;51.630;6.570;2023-04-24T05:29:13;15.23;;;11.97;;
79710;SDS011;69465;51.630;6.570;2023-04-24T05:31:40;15.63;;;11.27;;
79710;SDS011;69465;51.630;6.570;2023-04-24T05:34:07;15.73;;;11.13;;
79710;SDS011;69465;51.630;6.570;2023-04-24T05:36:34;11.77;;;9.57;;
79710;SDS011;69465;51.630;6.570;2023-04-24T05:39:00;15.50;;;10.30;;
79710;SDS011;69465;51.630;6.570;2023-04-24T05:41:27;13.60;;;11.10;;
79710;SDS011;69465;51.630;6.570;2023-04-24T05:43:54;13.60;;;10.37;;
79710;SDS011;69465;51.630;6.570;2023-04-24T05:46:20;12.30;;;9.70;;
79710;SDS011;69465;51.630;6.570;2023-04-24T05:48:47;14.93;;;10.90;;
79710;SDS011;69465;51.630;6.570;2023-04-24T05:51:14;15.10;;;10.40;;
79710;SDS011;69465;51.630;6.570;2023-04-24T05:53:41;12.80;;;9.03;;
79710;SDS011;69465;51.630;6.570;2023-04-24T05:56:07;13.27;;;10.63;;
79710;SDS011;69465;51.630;6.570;2023-04-24T05:58:34;13.50;;;10.70;;
79710;SDS011;69465;51.630;6.570;2023-04-24T06:01:00;13.47;;;10.93;;
79710;SDS011;69465;51.630;6.570;2023-04-24T06:03:27;11.90;;;10.57;;
79710;SDS011;69465;51.630;6.570;2023-04-24T06:05:54;13.33;;;9.83;;
79710;SDS011;69465;51.630;6.570;2023-04-24T06:08:21;16.97;;;10.93;;
79710;SDS011;69465;51.630;6.570;2023-04-24T06:10:47;12.73;;;10.27;;
79710;SDS011;69465;51.630;6.570;2023-04-24T06:13:14;16.17;;;11.70;;
79710;SDS011;69465;51.630;6.570;2023-04-24T06:15:41;13.30;;;10.80;;
79710;SDS011;69465;51.630;6.570;2023-04-24T06:18:09;13.47;;;10.13;;
79710;SDS011;69465;51.630;6.570;2023-04-24T06:20:36;15.63;;;10.80;;
79710;SDS011;69465;51.630;6.570;2023-04-24T06:23:03;13.37;;;10.57;;
79710;SDS011;69465;51.630;6.570;2023-04-24T06:25:30;12.60;;;10.10;;
79710;SDS011;69465;51.630;6.570;2023-04-24T06:27:57;14.67;;;10.60;;
79710;SDS011;69465;51.630;6.570;2023-04-24T06:30:24;13.97;;;10.87;;
79710;SDS011;69465;51.630;6.570;2023-04-24T06:32:51;12.97;;;10.00;;
79710;SDS011;69465;51.630;6.570;2023-04-24T06:35:17;14.30;;;10.60;;
79710;SDS011;69465;51.630;6.570;2023-04-24T06:37:44;13.77;;;10.73;;
79710;SDS011;69465;51.630;6.570;2023-04-24T06:40:11;12.57;;;10.13;;
79710;SDS011;69465;51.630;6.570;2023-04-24T06:42:38;12.90;;;9.77;;
79710;SDS011;69465;51.630;6.570;2023-04-24T06:45:05;15.90;;;10.27;;
79710;SDS011;69465;51.630;6.570;2023-04-24T06:47:32;13.47;;;9.77;;
79710;SDS011;69465;51.630;6.570;2023-04-24T06:49:58;10.30;;;9.13;;
79710;SDS011;69465;51.630;6.570;2023-04-24T06:52:25;11.03;;;8.77;;
79710;SDS011;69465;51.630;6.570;2023-04-24T06:54:52;11.80;;;8.67;;
79710;SDS011;69465;51.630;6.570;2023-04-24T06:57:25;10.23;;;8.10;;
79710;SDS011;69465;51.630;6.570;2023-04-24T06:59:52;13.43;;;9.23;;
79710;SDS011;69465;51.630;6.570;2023-04-24T07:02:19;11.50;;;7.73;;
79710;SDS011;69465;51.630;6.570;2023-04-24T07:04:45;9.80;;;7.17;;
79710;SDS011;69465;51.630;6.570;2023-04-24T07:07:13;9.17;;;7.40;;
79710;SDS011;69465;51.630;6.570;2023-04-24T07:09:40;11.50;;;7.37;;
79710;SDS011;69465;51.630;6.570;2023-04-24T07:12:06;9.20;;;6.20;;
79710;SDS011;69465;51.630;6.570;2023-04-24T07:14:33;9.50;;;6.50;;
79710;SDS011;69465;51.630;6.570;2023-04-24T07:17:00;11.00;;;6.93;;
79710;SDS011;69465;51.630;6.570;2023-04-24T07:19:29;6.33;;;5.13;;
79710;SDS011;69465;51.630;6.570;2023-04-24T07:21:56;5.53;;;4.97;;
79710;SDS011;69465;51.630;6.570;2023-04-24T07:24:22;6.37;;;4.50;;
79710;SDS011;69465;51.630;6.570;2023-04-24T07:26:52;5.63;;;4.33;;
79710;SDS011;69465;51.630;6.570;2023-04-24T07:29:20;5.63;;;3.63;;
79710;SDS011;69465;51.630;6.570;2023-04-24T07:31:47;3.47;;;3.17;;
79710;SDS011;69465;51.630;6.570;2023-04-24T07:34:13;3.70;;;3.20;;
79710;SDS011;69465;51.630;6.570;2023-04-24T07:36:40;3.10;;;2.80;;
79710;SDS011;69465;51.630;6.570;2023-04-24T07:39:07;3.13;;;2.60;;
79710;SDS011;69465;51.630;6.570;2023-04-24T07:41:34;2.73;;;2.53;;
79710;SDS011;69465;51.630;6.570;2023-04-24T07:44:01;4.17;;;2.87;;
79710;SDS011;69465;51.630;6.570;2023-04-24T07:46:27;4.70;;;2.50;;
79710;SDS011;69465;51.630;6.570;2023-04-24T07:48:56;3.03;;;2.43;;
79710;SDS011;69465;51.630;6.570;2023-04-24T07:51:37;2.50;;;2.30;;
79710;SDS011;69465;51.630;6.570;2023-04-24T07:54:05;2.40;;;2.20;;
79710;SDS011;69465;51.630;6.570;2023-04-24T07:56:31;4.13;;;2.10;;
79710;SDS011;69465;51.630;6.570;2023-04-24T07:58:59;3.63;;;2.30;;
79710;SDS011;69465;51.630;6.570;2023-04-24T08:01:26;2.83;;;2.50;;
79710;SDS011;69465;51.630;6.570;2023-04-24T08:03:53;2.87;;;2.53;;
79710;SDS011;69465;51.630;6.570;2023-04-24T08:06:20;2.77;;;2.57;;
79710;SDS011;69465;51.630;6.570;2023-04-24T08:08:47;3.03;;;2.70;;
79710;SDS011;69465;51.630;6.570;2023-04-24T08:11:13;2.63;;;2.43;;
79710;SDS011;69465;51.630;6.570;2023-04-24T08:13:40;3.17;;;2.70;;
79710;SDS011;69465;51.630;6.570;2023-04-24T08:16:07;2.53;;;2.20;;
79710;SDS011;69465;51.630;6.570;2023-04-24T08:18:34;3.60;;;3.10;;
79710;SDS011;69465;51.630;6.570;2023-04-24T08:21:00;3.60;;;2.93;;
79710;SDS011;69465;51.630;6.570;2023-04-24T08:23:27;3.37;;;3.07;;
79710;SDS011;69465;51.630;6.570;2023-04-24T08:25:54;2.37;;;2.17;;
79710;SDS011;69465;51.630;6.570;2023-04-24T08:28:21;2.40;;;2.20;;
79710;SDS011;69465;51.630;6.570;2023-04-24T08:30:48;3.00;;;2.10;;
79710;SDS011;69465;51.630;6.570;2023-04-24T08:33:15;2.30;;;1.70;;
79710;SDS011;69465;51.630;6.570;2023-04-24T08:35:41;1.30;;;1.17;;
79710;SDS011;69465;51.630;6.570;2023-04-24T08:38:08;1.30;;;1.20;;
79710;SDS011;69465;51.630;6.570;2023-04-24T08:40:35;1.30;;;1.20;;
79710;SDS011;69465;51.630;6.570;2023-04-24T08:43:03;1.57;;;1.40;;
79710;SDS011;69465;51.630;6.570;2023-04-24T08:45:30;1.47;;;1.37;;
79710;SDS011;69465;51.630;6.570;2023-04-24T08:47:58;1.93;;;1.53;;
79710;SDS011;69465;51.630;6.570;2023-04-24T08:50:26;1.40;;;1.30;;
79710;SDS011;69465;51.630;6.570;2023-04-24T08:52:53;2.10;;;1.60;;
79710;SDS011;69465;51.630;6.570;2023-04-24T08:55:20;2.10;;;1.97;;
79710;SDS011;69465;51.630;6.570;2023-04-24T08:57:50;2.73;;;2.27;;
79710;SDS011;69465;51.630;6.570;2023-04-24T09:00:20;4.70;;;3.10;;
79710;SDS011;69465;51.630;6.570;2023-04-24T09:02:48;5.63;;;4.37;;
79710;SDS011;69465;51.630;6.570;2023-04-24T09:05:17;8.23;;;5.80;;
79710;SDS011;69465;51.630;6.570;2023-04-24T09:07:44;9.30;;;6.77;;
79710;SDS011;69465;51.630;6.570;2023-04-24T09:10:15;9.27;;;6.00;;
79710;SDS011;69465;51.630;6.570;2023-04-24T09:12:42;7.93;;;6.70;;
79710;SDS011;69465;51.630;6.570;2023-04-24T09:15:10;9.23;;;6.20;;
79710;SDS011;69465;51.630;6.570;2023-04-24T09:17:37;8.43;;;6.13;;
79710;SDS011;69465;51.630;6.570;2023-04-24T09:20:05;10.77;;;6.47;;
79710;SDS011;69465;51.630;6.570;2023-04-24T09:22:32;12.60;;;6.77;;
79710;SDS011;69465;51.630;6.570;2023-04-24T09:24:59;6.97;;;5.53;;
79710;SDS011;69465;51.630;6.570;2023-04-24T09:27:32;9.07;;;6.63;;
79710;SDS011;69465;51.630;6.570;2023-04-24T09:30:01;8.53;;;6.30;;
79710;SDS011;69465;51.630;6.570;2023-04-24T09:32:28;8.90;;;5.60;;
79710;SDS011;69465;51.630;6.570;2023-04-24T09:37:43;7.33;;;6.63;;
79710;SDS011;69465;51.630;6.570;2023-04-24T09:40:15;12.57;;;7.47;;
79710;SDS011;69465;51.630;6.570;2023-04-24T09:42:44;9.87;;;7.13;;
79710;SDS011;69465;51.630;6.570;2023-04-24T09:45:12;9.07;;;7.83;;
79710;SDS011;69465;51.630;6.570;2023-04-24T09:47:42;12.03;;;7.90;;
79710;SDS011;69465;51.630;6.570;2023-04-24T09:50:14;11.27;;;7.90;;
79710;SDS011;69465;51.630;6.570;2023-04-24T09:52:43;11.60;;;7.47;;
79710;SDS011;69465;51.630;6.570;2023-04-24T09:55:13;13.77;;;9.37;;
79710;SDS011;69465;51.630;6.570;2023-04-24T09:57:48;10.40;;;8.17;;
79710;SDS011;69465;51.630;6.570;2023-04-24T10:00:21;11.37;;;8.27;;
79710;SDS011;69465;51.630;6.570;2023-04-24T10:02:49;11.73;;;8.20;;
79710;SDS011;69465;51.630;6.570;2023-04-24T10:05:17;12.63;;;7.70;;
79710;SDS011;69465;51.630;6.570;2023-04-24T10:07:44;11.50;;;7.53;;
79710;SDS011;69465;51.630;6.570;2023-04-24T10:10:15;14.73;;;7.20;;
79710;SDS011;69465;51.630;6.570;2023-04-24T10:12:42;11.13;;;6.07;;
79710;SDS011;69465;51.630;6.570;2023-04-24T10:15:10;10.33;;;6.73;;
79710;SDS011;69465;51.630;6.570;2023-04-24T10:17:37;12.83;;;6.63;;
79710;SDS011;69465;51.630;6.570;2023-04-24T10:20:05;12.90;;;7.33;;
79710;SDS011;69465;51.630;6.570;2023-04-24T10:22:32;13.67;;;7.33;;
79710;SDS011;69465;51.630;6.570;2023-04-24T10:25:00;18.93;;;7.37;;
79710;SDS011;69465;51.630;6.570;2023-04-24T10:27:28;14.17;;;6.23;;
79710;SDS011;69465;51.630;6.570;2023-04-24T10:29:57;21.00;;;6.23;;
79710;SDS011;69465;51.630;6.570;2023-04-24T10:32:25;14.57;;;6.77;;
79710;SDS011;69465;51.630;6.570;2023-04-24T10:34:51;12.87;;;5.60;;
79710;SDS011;69465;51.630;6.570;2023-04-24T10:37:18;13.80;;;6.23;;
79710;SDS011;69465;51.630;6.570;2023-04-24T10:39:47;14.13;;;6.10;;
79710;SDS011;69465;51.630;6.570;2023-04-24T10:42:15;13.03;;;7.00;;
79710;SDS011;69465;51.630;6.570;2023-04-24T10:44:42;9.13;;;5.53;;
79710;SDS011;69465;51.630;6.570;2023-04-24T10:47:14;16.23;;;5.20;;
79710;SDS011;69465;51.630;6.570;2023-04-24T10:49:41;8.77;;;5.37;;
79710;SDS011;69465;51.630;6.570;2023-04-24T10:52:09;8.33;;;3.93;;
79710;SDS011;69465;51.630;6.570;2023-04-24T10:59:47;8.70;;;3.73;;
79710;SDS011;69465;51.630;6.570;2023-04-24T11:02:15;9.00;;;3.77;;
79710;SDS011;69465;51.630;6.570;2023-04-24T11:04:43;7.93;;;3.37;;
79710;SDS011;69465;51.630;6.570;2023-04-24T11:07:10;9.63;;;3.60;;
79710;SDS011;69465;51.630;6.570;2023-04-24T11:09:38;6.87;;;2.97;;
79710;SDS011;69465;51.630;6.570;2023-04-24T11:12:05;8.07;;;4.20;;
79710;SDS011;69465;51.630;6.570;2023-04-24T11:17:32;9.97;;;4.27;;
79710;SDS011;69465;51.630;6.570;2023-04-24T11:20:01;10.67;;;3.80;;
79710;SDS011;69465;51.630;6.570;2023-04-24T11:22:50;5.63;;;3.00;;
79710;SDS011;69465;51.630;6.570;2023-04-24T11:25:19;9.20;;;3.40;;
79710;SDS011;69465;51.630;6.570;2023-04-24T11:27:47;7.90;;;2.73;;
79710;SDS011;69465;51.630;6.570;2023-04-24T11:30:18;8.87;;;3.13;;
79710;SDS011;69465;51.630;6.570;2023-04-24T11:32:50;6.10;;;2.90;;
79710;SDS011;69465;51.630;6.570;2023-04-24T11:35:19;6.80;;;3.30;;
79710;SDS011;69465;51.630;6.570;2023-04-24T11:37:47;7.13;;;3.00;;
79710;SDS011;69465;51.630;6.570;2023-04-24T11:40:19;10.50;;;4.73;;
79710;SDS011;69465;51.630;6.570;2023-04-24T11:42:47;7.40;;;3.10;;
79710;SDS011;69465;51.630;6.570;2023-04-24T11:45:15;12.50;;;3.53;;
79710;SDS011;69465;51.630;6.570;2023-04-24T11:47:43;13.30;;;4.10;;
79710;SDS011;69465;51.630;6.570;2023-04-24T11:50:12;9.40;;;3.50;;
79710;SDS011;69465;51.630;6.570;2023-04-24T11:52:40;10.67;;;3.17;;
79710;SDS011;69465;51.630;6.570;2023-04-24T11:57:44;7.63;;;3.50;;
79710;SDS011;69465;51.630;6.570;2023-04-24T12:00:16;6.27;;;3.03;;
79710;SDS011;69465;51.630;6.570;2023-04-24T12:02:43;8.73;;;3.60;;
79710;SDS011;69465;51.630;6.570;2023-04-24T12:05:19;4.70;;;2.97;;
79710;SDS011;69465;51.630;6.570;2023-04-24T12:07:47;6.87;;;2.70;;
79710;SDS011;69465;51.630;6.570;2023-04-24T12:10:13;6.53;;;2.73;;
79710;SDS011;69465;51.630;6.570;2023-04-24T12:12:40;7.20;;;3.03;;
79710;SDS011;69465;51.630;6.570;2023-04-24T12:15:07;4.17;;;2.70;;
79710;SDS011;69465;51.630;6.570;2023-04-24T12:17:35;3.03;;;2.17;;
79710;SDS011;69465;51.630;6.570;2023-04-24T12:20:02;6.00;;;2.40;;
79710;SDS011;69465;51.630;6.570;2023-04-24T12:22:43;5.93;;;2.70;;
79710;SDS011;69465;51.630;6.570;2023-04-24T12:25:16;6.87;;;2.70;;
79710;SDS011;69465;51.630;6.570;2023-04-24T12:27:44;5.37;;;2.77;;
79710;SDS011;69465;51.630;6.570;2023-04-24T12:30:12;6.30;;;2.83;;
79710;SDS011;69465;51.630;6.570;2023-04-24T12:32:41;8.80;;;2.67;;
79710;SDS011;69465;51.630;6.570;2023-04-24T12:35:09;3.67;;;2.10;;
79710;SDS011;69465;51.630;6.570;2023-04-24T12:37:35;3.67;;;2.57;;
79710;SDS011;69465;51.630;6.570;2023-04-24T12:40:04;6.07;;;2.90;;
79710;SDS011;69465;51.630;6.570;2023-04-24T12:42:31;7.17;;;2.90;;
79710;SDS011;69465;51.630;6.570;2023-04-24T12:45:00;3.93;;;2.30;;
79710;SDS011;69465;51.630;6.570;2023-04-24T12:47:32;3.60;;;2.33;;
79710;SDS011;69465;51.630;6.570;2023-04-24T12:49:59;3.47;;;2.80;;
79710;SDS011;69465;51.630;6.570;2023-04-24T12:52:27;6.73;;;2.47;;
79710;SDS011;69465;51.630;6.570;2023-04-24T12:54:56;5.37;;;2.60;;
79710;SDS011;69465;51.630;6.570;2023-04-24T12:57:24;7.43;;;3.10;;
79710;SDS011;69465;51.630;6.570;2023-04-24T12:59:56;4.00;;;2.50;;
79710;SDS011;69465;51.630;6.570;2023-04-24T13:02:24;7.00;;;3.10;;
79710;SDS011;69465;51.630;6.570;2023-04-24T13:04:53;3.37;;;2.50;;
79710;SDS011;69465;51.630;6.570;2023-04-24T13:07:20;5.43;;;2.60;;
79710;SDS011;69465;51.630;6.570;2023-04-24T13:09:47;4.13;;;2.20;;
79710;SDS011;69465;51.630;6.570;2023-04-24T13:12:15;3.60;;;2.40;;
79710;SDS011;69465;51.630;6.570;2023-04-24T13:14:42;4.13;;;2.10;;
79710;SDS011;69465;51.630;6.570;2023-04-24T13:17:08;5.17;;;2.33;;
79710;SDS011;69465;51.630;6.570;2023-04-24T13:19:36;5.27;;;2.60;;
79710;SDS011;69465;51.630;6.570;2023-04-24T13:22:04;7.00;;;2.43;;
79710;SDS011;69465;51.630;6.570;2023-04-24T13:24:31;3.07;;;2.30;;
79710;SDS011;69465;51.630;6.570;2023-04-24T13:26:59;4.93;;;2.90;;
79710;SDS011;69465;51.630;6.570;2023-04-24T13:29:25;4.47;;;2.80;;
79710;SDS011;69465;51.630;6.570;2023-04-24T13:31:53;4.20;;;2.53;;
79710;SDS011;69465;51.630;6.570;2023-04-24T13:34:24;7.77;;;2.60;;
79710;SDS011;69465;51.630;6.570;2023-04-24T13:36:55;5.43;;;2.60;;
79710;SDS011;69465;51.630;6.570;2023-04-24T13:39:22;6.27;;;2.50;;
79710;SDS011;69465;51.630;6.570;2023-04-24T13:41:50;4.50;;;2.10;;
79710;SDS011;69465;51.630;6.570;2023-04-24T13:44:17;4.77;;;2.40;;
79710;SDS011;69465;51.630;6.570;2023-04-24T13:46:45;4.83;;;2.50;;
79710;SDS011;69465;51.630;6.570;2023-04-24T13:49:14;6.27;;;2.40;;
79710;SDS011;69465;51.630;6.570;2023-04-24T13:51:41;4.33;;;3.10;;
79710;SDS011;69465;51.630;6.570;2023-04-24T13:54:08;5.33;;;3.10;;
79710;SDS011;69465;51.630;6.570;2023-04-24T13:56:34;3.57;;;2.60;;
79710;SDS011;69465;51.630;6.570;2023-04-24T13:59:01;5.87;;;2.97;;
79710;SDS011;69465;51.630;6.570;2023-04-24T14:01:28;4.97;;;3.40;;
79710;SDS011;69465;51.630;6.570;2023-04-24T14:03:55;6.73;;;5.00;;
79710;SDS011;69465;51.630;6.570;2023-04-24T14:06:22;9.20;;;4.37;;
79710;SDS011;69465;51.630;6.570;2023-04-24T14:08:49;13.07;;;8.07;;
79710;SDS011;69465;51.630;6.570;2023-04-24T14:11:17;10.83;;;6.30;;
79710;SDS011;69465;51.630;6.570;2023-04-24T14:13:44;6.30;;;3.60;;
79710;SDS011;69465;51.630;6.570;2023-04-24T14:16:12;3.77;;;3.13;;
79710;SDS011;69465;51.630;6.570;2023-04-24T14:18:39;6.47;;;3.20;;
79710;SDS011;69465;51.630;6.570;2023-04-24T14:21:06;7.33;;;4.13;;
79710;SDS011;69465;51.630;6.570;2023-04-24T14:23:50;5.80;;;3.43;;
79710;SDS011;69465;51.630;6.570;2023-04-24T14:26:17;5.30;;;2.80;;
79710;SDS011;69465;51.630;6.570;2023-04-24T14:28:44;3.83;;;2.73;;
79710;SDS011;69465;51.630;6.570;2023-04-24T14:31:10;4.67;;;2.40;;
79710;SDS011;69465;51.630;6.570;2023-04-24T14:33:37;5.23;;;2.20;;
79710;SDS011;69465;51.630;6.570;2023-04-24T14:36:04;3.13;;;2.20;;
79710;SDS011;69465;51.630;6.570;2023-04-24T14:38:30;2.37;;;1.70;;
79710;SDS011;69465;51.630;6.570;2023-04-24T14:40:57;2.90;;;1.80;;
79710;SDS011;69465;51.630;6.570;2023-04-24T14:43:33;3.87;;;2.00;;
79710;SDS011;69465;51.630;6.570;2023-04-24T14:45:59;1.80;;;1.60;;
79710;SDS011;69465;51.630;6.570;2023-04-24T14:48:26;4.17;;;2.00;;
79710;SDS011;69465;51.630;6.570;2023-04-24T14:50:52;3.23;;;2.13;;
79710;SDS011;69465;51.630;6.570;2023-04-24T14:53:19;2.33;;;1.70;;